Time;durP1;ratioP1;P1;durP2;ratioP2;P2;SDS_P1;SDS_P2;PMS_P1;PMS_P2;Temp;Humidity;BMP_temperature;BMP_pressure;BME280_temperature;BME280_humidity;BME280_pressure;Samples;Min_cycle;Max_cycle;Signal;HPM_P1;HPM_P2
2024/01/03 00:00:21;;;;;;;29.30;18.67;;;3.90;99.90;;;;;;6178875;23;20151;-89
2024/01/03 00:03:12;;;;;;;31.50;18.70;;;3.90;99.90;;;;;;6168788;23;20578;-87
2024/01/03 00:05:42;;;;;;;31.17;18.00;;;3.90;99.90;;;;;;6171620;23;20617;-86
2024/01/03 00:08:21;;;;;;;28.33;17.13;;;3.90;99.90;;;;;;6160581;23;20190;-86
2024/01/03 00:10:57;;;;;;;28.13;18.47;;;4.00;99.90;;;;;;6158528;23;20156;-87
2024/01/03 00:14:13;;;;;;;28.20;17.70;;;3.90;99.90;;;;;;6126233;23;20643;-87
2024/01/03 00:16:46;;;;;;;30.93;18.87;;;3.90;99.90;;;;;;6157320;23;20159;-86
2024/01/03 00:19:20;;;;;;;30.97;18.13;;;3.80;99.90;;;;;;6161467;23;20183;-87
2024/01/03 00:21:50;;;;;;;28.43;18.50;;;3.90;99.90;;;;;;6119364;23;20461;-87
2024/01/03 00:24:22;;;;;;;31.27;19.53;;;3.90;99.90;;;;;;6157326;23;20165;-86
2024/01/03 00:26:50;;;;;;;34.00;19.33;;;3.90;99.90;;;;;;6156455;23;20160;-86
2024/01/03 00:29:48;;;;;;;29.37;19.07;;;3.90;99.90;;;;;;6167967;23;20230;-88
2024/01/03 00:32:17;;;;;;;33.40;18.53;;;3.90;99.90;;;;;;6169768;23;20171;-87
2024/01/03 00:34:51;;;;;;;29.67;19.40;;;3.90;99.90;;;;;;6168574;23;20161;-86
2024/01/03 00:37:25;;;;;;;29.20;19.57;;;4.00;99.90;;;;;;6157561;23;20176;-87
2024/01/03 00:39:58;;;;;;;30.37;19.27;;;3.90;99.90;;;;;;6156683;23;20167;-89
2024/01/03 00:42:27;;;;;;;32.97;19.37;;;3.90;99.90;;;;;;6156298;23;20195;-86
2024/01/03 00:44:56;;;;;;;35.07;20.00;;;3.90;99.90;;;;;;6162996;23;20708;-87
2024/01/03 00:47:30;;;;;;;31.40;19.53;;;3.90;99.90;;;;;;6165780;23;20192;-86
2024/01/03 00:50:00;;;;;;;32.03;19.93;;;3.90;99.90;;;;;;6166367;23;20188;-86
2024/01/03 00:52:32;;;;;;;31.27;20.33;;;4.00;99.90;;;;;;6159414;23;20156;-85
2024/01/03 00:55:03;;;;;;;31.07;19.43;;;3.90;99.90;;;;;;6158131;23;20178;-84
2024/01/03 00:57:31;;;;;;;33.17;19.83;;;4.00;99.90;;;;;;6166133;23;20514;-87
2024/01/03 01:00:00;;;;;;;30.63;20.10;;;3.80;99.90;;;;;;6142547;23;20475;-87
2024/01/03 01:02:30;;;;;;;34.53;20.03;;;4.00;99.90;;;;;;6181009;23;20148;-87
2024/01/03 01:04:59;;;;;;;31.57;20.03;;;3.80;99.90;;;;;;6172198;23;20500;-86
2024/01/03 01:07:29;;;;;;;34.17;21.07;;;3.90;99.90;;;;;;6167644;23;20195;-85
2024/01/03 01:09:59;;;;;;;32.67;20.50;;;3.90;99.90;;;;;;6164822;23;20200;-85
2024/01/03 01:12:29;;;;;;;30.63;18.97;;;3.90;99.90;;;;;;6155349;23;20163;-89
2024/01/03 01:14:59;;;;;;;30.73;20.90;;;4.10;99.90;;;;;;6156969;23;20430;-86
2024/01/03 01:17:29;;;;;;;34.50;20.80;;;3.90;99.90;;;;;;6156122;23;20187;-86
2024/01/03 01:20:01;;;;;;;34.87;20.63;;;3.90;99.90;;;;;;6153305;23;20576;-89
2024/01/03 01:22:29;;;;;;;35.67;20.83;;;4.00;99.90;;;;;;6156480;23;20179;-86
2024/01/03 01:24:59;;;;;;;34.27;21.30;;;4.00;99.90;;;;;;6155085;23;20574;-88
2024/01/03 01:27:29;;;;;;;32.90;20.93;;;4.10;99.90;;;;;;6128005;23;20240;-89
2024/01/03 01:29:58;;;;;;;32.63;20.77;;;3.90;99.90;;;;;;6136259;23;20195;-89
2024/01/03 01:32:27;;;;;;;30.07;20.80;;;4.00;99.90;;;;;;6174997;23;20175;-87
2024/01/03 01:34:56;;;;;;;34.37;21.47;;;3.90;99.90;;;;;;6134370;23;20180;-89
2024/01/03 01:37:28;;;;;;;34.00;22.10;;;3.90;99.90;;;;;;6171923;23;20480;-84
2024/01/03 01:39:57;;;;;;;32.13;20.40;;;3.90;99.90;;;;;;6177730;23;20176;-84
2024/01/03 01:42:31;;;;;;;37.40;22.43;;;3.90;99.90;;;;;;6176969;23;20189;-86
2024/01/03 01:45:01;;;;;;;37.17;21.30;;;3.90;99.90;;;;;;6177184;23;20667;-84
2024/01/03 01:47:30;;;;;;;36.23;22.23;;;3.90;99.90;;;;;;6161880;23;20438;-87
2024/01/03 01:50:00;;;;;;;33.63;21.47;;;3.90;99.90;;;;;;6132126;23;20227;-86
2024/01/03 01:52:29;;;;;;;30.60;20.27;;;3.90;99.90;;;;;;6170899;23;20182;-87
2024/01/03 01:54:59;;;;;;;37.37;22.63;;;3.90;99.90;;;;;;6121270;23;20244;-86
2024/01/03 01:57:30;;;;;;;32.40;20.43;;;4.00;99.90;;;;;;6166754;23;20180;-87
2024/01/03 02:00:05;;;;;;;36.13;21.20;;;4.00;99.90;;;;;;6165932;23;20172;-86
2024/01/03 02:02:38;;;;;;;31.73;20.93;;;3.90;99.90;;;;;;6158665;23;20183;-89
2024/01/03 02:05:09;;;;;;;31.63;21.53;;;4.00;99.90;;;;;;6157962;23;20250;-87
2024/01/03 02:07:38;;;;;;;33.80;20.50;;;3.90;99.90;;;;;;6156616;23;20160;-83
2024/01/03 02:10:09;;;;;;;32.93;20.80;;;3.90;99.90;;;;;;6156604;23;20275;-88
2024/01/03 02:12:39;;;;;;;29.53;19.93;;;3.90;99.90;;;;;;6162727;23;20168;-85
2024/01/03 02:15:09;;;;;;;35.10;21.40;;;3.90;99.90;;;;;;6166565;23;20466;-85
2024/01/03 02:17:39;;;;;;;34.90;20.67;;;3.90;99.90;;;;;;6171064;23;20184;-88
2024/01/03 02:20:14;;;;;;;31.47;20.57;;;3.90;99.90;;;;;;6173979;23;20148;-85
2024/01/03 02:22:45;;;;;;;33.73;21.10;;;4.20;99.90;;;;;;6168759;23;20157;-86
2024/01/03 02:25:16;;;;;;;33.17;19.97;;;4.10;99.90;;;;;;6120975;23;20240;-86
2024/01/03 02:27:46;;;;;;;31.80;18.87;;;3.90;99.90;;;;;;6123733;23;20225;-86
2024/01/03 02:30:18;;;;;;;33.23;19.50;;;4.10;99.90;;;;;;6157823;23;20179;-86
2024/01/03 02:32:47;;;;;;;34.90;20.63;;;4.10;99.90;;;;;;6162756;23;20411;-85
2024/01/03 02:35:17;;;;;;;32.30;19.07;;;4.00;99.90;;;;;;6160695;23;20562;-87
2024/01/03 02:37:50;;;;;;;32.83;21.33;;;3.90;99.90;;;;;;6156656;23;20352;-87
2024/01/03 02:40:19;;;;;;;29.97;19.57;;;3.90;99.90;;;;;;6163270;23;20171;-89
2024/01/03 02:42:47;;;;;;;31.57;19.80;;;3.90;99.90;;;;;;6130789;23;20330;-84
2024/01/03 02:45:17;;;;;;;31.50;19.90;;;3.90;99.90;;;;;;6130285;23;20236;-85
2024/01/03 02:47:46;;;;;;;29.33;19.43;;;4.10;99.90;;;;;;6164428;23;20164;-84
2024/01/03 02:50:15;;;;;;;29.53;19.57;;;3.90;99.90;;;;;;6124766;23;20298;-86
2024/01/03 02:52:44;;;;;;;30.47;19.60;;;4.00;99.90;;;;;;6162972;23;20431;-84
2024/01/03 02:55:15;;;;;;;26.90;18.40;;;4.00;99.90;;;;;;6159965;23;20540;-88
2024/01/03 02:57:44;;;;;;;29.33;18.70;;;3.90;99.90;;;;;;6159941;23;20160;-86
2024/01/03 03:00:14;;;;;;;29.10;18.40;;;4.10;99.90;;;;;;6159866;23;20166;-84
2024/01/03 03:02:45;;;;;;;28.37;17.77;;;3.90;99.90;;;;;;6158978;23;20160;-86
2024/01/03 03:05:15;;;;;;;27.30;18.17;;;3.90;99.90;;;;;;6159377;23;20160;-83
2024/01/03 03:07:47;;;;;;;27.43;18.63;;;3.90;99.90;;;;;;6163031;23;20164;-86
2024/01/03 03:10:17;;;;;;;31.27;19.20;;;3.80;99.90;;;;;;6167194;23;20516;-84
2024/01/03 03:12:46;;;;;;;26.70;17.77;;;4.00;99.90;;;;;;6160549;23;20226;-84
2024/01/03 03:15:15;;;;;;;29.90;18.67;;;3.90;99.90;;;;;;6169145;23;20156;-86
2024/01/03 03:17:44;;;;;;;29.70;19.83;;;3.90;99.90;;;;;;6155878;23;20187;-81
2024/01/03 03:20:14;;;;;;;27.07;17.40;;;3.80;99.90;;;;;;6166620;23;20176;-87
2024/01/03 03:22:45;;;;;;;32.20;18.73;;;3.90;99.90;;;;;;6165533;23;20148;-86
2024/01/03 03:25:14;;;;;;;30.17;19.20;;;3.90;99.90;;;;;;6164615;23;20170;-85
2024/01/03 03:27:45;;;;;;;26.77;17.47;;;4.00;99.90;;;;;;6161159;23;20160;-84
2024/01/03 03:30:15;;;;;;;31.53;17.10;;;3.90;99.90;;;;;;6168119;23;20686;-86
2024/01/03 03:32:45;;;;;;;28.33;18.83;;;3.90;99.90;;;;;;6130577;23;20176;-86
2024/01/03 03:35:16;;;;;;;25.30;16.80;;;3.90;99.90;;;;;;6162690;23;20176;-85
2024/01/03 03:37:45;;;;;;;27.70;17.00;;;4.00;99.90;;;;;;6169272;23;20182;-88
2024/01/03 03:40:14;;;;;;;25.27;17.13;;;3.90;99.90;;;;;;6169669;23;20160;-84
2024/01/03 03:42:53;;;;;;;23.83;15.90;;;3.90;99.90;;;;;;6173812;23;20197;-88
2024/01/03 03:45:23;;;;;;;25.27;16.60;;;3.90;99.90;;;;;;6132480;23;20377;-82
2024/01/03 03:47:52;;;;;;;28.03;17.07;;;4.20;99.90;;;;;;6163906;23;20730;-83
2024/01/03 03:50:22;;;;;;;26.80;17.47;;;3.90;99.90;;;;;;6168581;23;20909;-87
2024/01/03 03:52:52;;;;;;;27.30;16.80;;;3.90;99.90;;;;;;6170039;23;20190;-83
2024/01/03 03:55:21;;;;;;;27.67;16.50;;;4.00;99.90;;;;;;6169681;23;20225;-84
2024/01/03 03:57:51;;;;;;;22.47;15.47;;;4.20;99.90;;;;;;6163841;23;20631;-86
2024/01/03 04:00:20;;;;;;;25.97;16.03;;;3.90;99.90;;;;;;6123009;23;20180;-86
2024/01/03 04:02:49;;;;;;;23.90;15.87;;;3.90;99.90;;;;;;6167022;23;20351;-85
2024/01/03 04:05:21;;;;;;;25.83;16.97;;;4.10;99.90;;;;;;6164959;23;20168;-84
2024/01/03 04:07:50;;;;;;;23.97;15.53;;;3.90;99.90;;;;;;6114066;23;20187;-86
2024/01/03 04:10:19;;;;;;;26.83;16.77;;;3.90;99.90;;;;;;6165205;23;20226;-86
2024/01/03 04:12:48;;;;;;;22.37;15.97;;;4.00;99.90;;;;;;6169999;23;20164;-86
2024/01/03 04:15:20;;;;;;;24.50;16.10;;;3.90;99.90;;;;;;6178735;23;20164;-88
2024/01/03 04:17:49;;;;;;;24.10;15.77;;;4.10;99.90;;;;;;6180563;23;20190;-86
2024/01/03 04:20:21;;;;;;;23.73;16.77;;;4.00;99.90;;;;;;6178571;23;20284;-87
2024/01/03 04:22:50;;;;;;;23.50;15.73;;;4.00;99.90;;;;;;6160247;23;20219;-86
2024/01/03 04:25:19;;;;;;;24.20;16.03;;;4.00;99.90;;;;;;6177384;23;20262;-86
2024/01/03 04:27:49;;;;;;;23.37;15.63;;;4.00;99.90;;;;;;6173800;23;20182;-84
2024/01/03 04:30:20;;;;;;;24.97;16.47;;;4.00;99.90;;;;;;6168596;23;20555;-84
2024/01/03 04:32:51;;;;;;;26.43;17.40;;;3.90;99.90;;;;;;6172019;23;20169;-84
2024/01/03 04:35:24;;;;;;;26.90;16.60;;;4.10;99.90;;;;;;6165723;23;20199;-89
2024/01/03 04:37:56;;;;;;;23.27;16.40;;;4.00;99.90;;;;;;6130435;23;20179;-84
2024/01/03 04:40:28;;;;;;;21.60;15.60;;;4.10;99.90;;;;;;6170242;23;20198;-84
2024/01/03 04:42:58;;;;;;;23.77;15.97;;;4.00;99.90;;;;;;6165722;23;20202;-88
2024/01/03 04:45:29;;;;;;;23.50;15.60;;;4.00;99.90;;;;;;6156849;23;20160;-85
2024/01/03 04:48:01;;;;;;;25.73;15.50;;;3.90;99.90;;;;;;6153893;23;20179;-86
2024/01/03 04:50:30;;;;;;;23.07;15.53;;;4.00;99.90;;;;;;6120417;23;20234;-87
2024/01/03 04:52:59;;;;;;;24.97;15.50;;;4.00;99.90;;;;;;6158247;23;20183;-88
2024/01/03 04:55:30;;;;;;;24.80;15.90;;;4.00;99.90;;;;;;6121899;23;20191;-86
2024/01/03 04:57:59;;;;;;;26.03;16.47;;;4.00;99.90;;;;;;6156490;23;20172;-88
2024/01/03 05:00:37;;;;;;;24.37;15.97;;;4.00;99.90;;;;;;6158520;23;20180;-86
2024/01/03 05:03:07;;;;;;;22.50;16.17;;;4.00;99.90;;;;;;6156767;23;20159;-89
2024/01/03 05:05:43;;;;;;;22.07;15.63;;;4.10;99.90;;;;;;6156605;23;20291;-86
2024/01/03 05:08:15;;;;;;;25.13;16.00;;;4.10;99.90;;;;;;6157128;23;20180;-89
2024/01/03 05:10:48;;;;;;;25.43;16.50;;;4.10;99.90;;;;;;6163130;23;20204;-87
2024/01/03 05:13:17;;;;;;;23.47;15.33;;;4.10;99.90;;;;;;6129925;23;20299;-87
2024/01/03 05:15:51;;;;;;;25.70;16.00;;;4.10;99.90;;;;;;6156748;23;20534;-87
2024/01/03 05:18:20;;;;;;;21.33;15.60;;;4.30;99.90;;;;;;6158213;23;20259;-86
2024/01/03 05:20:59;;;;;;;22.03;15.10;;;4.10;99.90;;;;;;6160567;23;20187;-85
2024/01/03 05:23:28;;;;;;;24.57;16.40;;;4.10;99.90;;;;;;6119489;23;20575;-86
2024/01/03 05:25:57;;;;;;;22.73;15.67;;;4.00;99.90;;;;;;6159119;23;20204;-88
2024/01/03 05:28:26;;;;;;;23.90;15.57;;;4.10;99.90;;;;;;6155515;23;20278;-85
2024/01/03 05:31:00;;;;;;;19.80;14.53;;;4.10;99.90;;;;;;6125957;23;20199;-86
2024/01/03 05:33:39;;;;;;;21.47;15.40;;;4.10;99.90;;;;;;6152925;23;20186;-86
2024/01/03 05:36:09;;;;;;;24.07;16.13;;;4.20;99.90;;;;;;6156032;23;20164;-84
2024/01/03 05:38:44;;;;;;;24.60;15.70;;;4.10;99.90;;;;;;6159602;23;20181;-88
2024/01/03 05:41:31;;;;;;;23.40;16.57;;;4.10;99.90;;;;;;6158629;23;20270;-87
2024/01/03 05:44:01;;;;;;;20.60;15.00;;;4.10;99.90;;;;;;6159230;23;20190;-86
2024/01/03 05:46:57;;;;;;;22.20;15.10;;;4.10;99.90;;;;;;6154830;23;20542;-86
2024/01/03 05:49:29;;;;;;;21.10;15.37;;;4.10;99.90;;;;;;6134726;23;20458;-87
2024/01/03 05:52:05;;;;;;;21.90;14.87;;;4.30;99.90;;;;;;6159791;23;20195;-88
2024/01/03 05:54:34;;;;;;;22.37;16.30;;;4.20;99.90;;;;;;6116673;23;20286;-86
2024/01/03 05:57:42;;;;;;;21.87;15.27;;;4.20;99.90;;;;;;6158661;23;20331;-85
2024/01/03 06:00:13;;;;;;;22.00;14.60;;;4.20;99.90;;;;;;6107053;23;20683;-86
2024/01/03 06:02:44;;;;;;;20.00;14.53;;;4.20;99.90;;;;;;6125876;23;20175;-82
2024/01/03 06:05:16;;;;;;;23.03;15.77;;;4.20;99.90;;;;;;6142237;23;20604;-87
2024/01/03 06:07:45;;;;;;;21.20;14.93;;;4.20;99.90;;;;;;6145149;23;20173;-85
2024/01/03 06:10:17;;;;;;;20.97;15.00;;;4.30;99.90;;;;;;6141566;23;20654;-84
2024/01/03 06:12:46;;;;;;;22.47;15.10;;;4.30;99.90;;;;;;6146196;23;20199;-84
2024/01/03 06:15:14;;;;;;;23.13;15.60;;;4.30;99.90;;;;;;6142074;23;20187;-85
2024/01/03 06:17:44;;;;;;;21.70;15.20;;;4.30;99.90;;;;;;6142302;23;20185;-85
2024/01/03 06:20:13;;;;;;;22.00;15.57;;;4.30;99.90;;;;;;6145700;23;20394;-83
2024/01/03 06:22:42;;;;;;;24.87;16.97;;;4.30;99.90;;;;;;6153518;23;20249;-86
2024/01/03 06:25:10;;;;;;;22.27;16.90;;;4.40;99.90;;;;;;6146029;23;20555;-84
2024/01/03 06:27:38;;;;;;;22.30;15.83;;;4.30;99.90;;;;;;6138968;23;20186;-82
2024/01/03 06:30:07;;;;;;;21.47;16.03;;;4.40;99.90;;;;;;6143222;23;20346;-85
2024/01/03 06:32:36;;;;;;;23.13;16.17;;;4.30;99.90;;;;;;6136360;23;20659;-83
2024/01/03 06:35:08;;;;;;;23.47;16.20;;;4.30;99.90;;;;;;6137322;23;20178;-88
2024/01/03 06:37:42;;;;;;;24.30;17.23;;;4.30;99.90;;;;;;6162169;23;20168;-82
2024/01/03 06:40:11;;;;;;;25.67;17.57;;;4.30;99.90;;;;;;6148908;23;20395;-83
2024/01/03 06:42:40;;;;;;;25.60;16.30;;;4.30;99.90;;;;;;6143661;23;20395;-81
2024/01/03 06:45:09;;;;;;;23.90;16.70;;;4.50;99.90;;;;;;6145021;23;20181;-82
2024/01/03 06:47:38;;;;;;;21.77;16.50;;;4.30;99.90;;;;;;6135777;23;20169;-85
2024/01/03 06:50:09;;;;;;;24.67;17.40;;;4.40;99.90;;;;;;6141031;23;20177;-83
2024/01/03 06:52:38;;;;;;;24.30;16.80;;;4.40;99.90;;;;;;6139503;23;20619;-82
2024/01/03 06:55:08;;;;;;;27.00;17.57;;;4.50;99.90;;;;;;6118317;23;20220;-83
2024/01/03 06:57:38;;;;;;;26.27;17.07;;;4.40;99.90;;;;;;6129000;23;20750;-83
2024/01/03 07:00:07;;;;;;;27.77;17.93;;;4.40;99.90;;;;;;6130058;23;20256;-83
2024/01/03 07:02:36;;;;;;;23.97;16.70;;;4.40;99.90;;;;;;6143694;23;20189;-85
2024/01/03 07:05:05;;;;;;;27.43;17.37;;;4.40;99.90;;;;;;6148318;23;20551;-85
2024/01/03 07:07:36;;;;;;;23.50;17.00;;;4.50;99.90;;;;;;6139456;23;20660;-85
2024/01/03 07:10:06;;;;;;;24.93;17.40;;;4.40;99.90;;;;;;6144155;23;20220;-86
2024/01/03 07:12:35;;;;;;;25.13;16.93;;;4.40;99.90;;;;;;6143070;23;20186;-81
2024/01/03 07:15:04;;;;;;;25.87;17.53;;;4.50;99.90;;;;;;6136029;23;20388;-86
2024/01/03 07:17:32;;;;;;;24.90;17.40;;;4.40;99.90;;;;;;6123553;23;20411;-82
2024/01/03 07:20:01;;;;;;;27.90;18.20;;;4.50;99.90;;;;;;6111945;23;20195;-83
2024/01/03 07:22:30;;;;;;;23.53;17.17;;;4.50;99.90;;;;;;6114011;23;20392;-80
2024/01/03 07:24:59;;;;;;;26.30;17.60;;;4.70;99.90;;;;;;6120603;23;20256;-81
2024/01/03 07:27:28;;;;;;;26.47;17.27;;;4.50;99.90;;;;;;6118375;23;20315;-83
2024/01/03 07:29:56;;;;;;;26.03;17.97;;;4.50;99.90;;;;;;6116028;23;20169;-83
2024/01/03 07:32:25;;;;;;;25.43;17.43;;;4.50;99.90;;;;;;6113956;23;20751;-84
2024/01/03 07:34:54;;;;;;;25.03;17.80;;;4.50;99.90;;;;;;6113148;23;20474;-81
2024/01/03 07:37:23;;;;;;;26.37;18.00;;;4.60;99.90;;;;;;6118561;23;20466;-83
2024/01/03 07:39:51;;;;;;;24.47;17.03;;;4.80;99.90;;;;;;6104179;23;20222;-83
2024/01/03 07:42:22;;;;;;;24.90;17.37;;;4.80;99.90;;;;;;6118932;23;20184;-83
2024/01/03 07:44:50;;;;;;;27.70;18.90;;;4.60;99.90;;;;;;6113619;23;20177;-82
2024/01/03 07:47:19;;;;;;;27.10;18.80;;;4.60;99.90;;;;;;6119935;23;20176;-83
2024/01/03 07:49:47;;;;;;;28.13;19.07;;;4.70;99.90;;;;;;6107822;23;20181;-83
2024/01/03 07:52:16;;;;;;;30.07;20.10;;;4.60;99.90;;;;;;6115943;23;20627;-84
2024/01/03 07:54:45;;;;;;;28.03;20.87;;;4.60;99.90;;;;;;6135216;23;20578;-80
2024/01/03 07:57:13;;;;;;;28.27;20.40;;;4.60;99.90;;;;;;6144613;23;20220;-81
2024/01/03 07:59:45;;;;;;;30.27;20.23;;;4.60;99.90;;;;;;6145599;23;20169;-82
2024/01/03 08:02:14;;;;;;;28.63;19.73;;;4.60;99.90;;;;;;6143584;23;20255;-85
2024/01/03 08:04:42;;;;;;;25.03;18.67;;;4.70;99.90;;;;;;6133320;23;20260;-80
2024/01/03 08:07:11;;;;;;;27.17;18.60;;;4.70;99.90;;;;;;6147077;23;20181;-82
2024/01/03 08:09:39;;;;;;;26.90;20.00;;;4.70;99.90;;;;;;6132559;23;20156;-81
2024/01/03 08:12:09;;;;;;;23.97;17.53;;;4.70;99.90;;;;;;6149086;23;20173;-81
2024/01/03 08:14:37;;;;;;;27.20;18.73;;;4.70;99.90;;;;;;6143909;23;20150;-85
2024/01/03 08:17:07;;;;;;;25.93;18.73;;;4.70;99.90;;;;;;6146245;23;20226;-83
2024/01/03 08:19:36;;;;;;;28.30;19.37;;;4.70;99.90;;;;;;6138888;23;20425;-84
2024/01/03 08:22:05;;;;;;;25.00;18.10;;;4.80;99.90;;;;;;6144730;23;20171;-82
2024/01/03 08:24:33;;;;;;;27.17;18.83;;;4.80;99.90;;;;;;6131140;23;20169;-85
2024/01/03 08:27:02;;;;;;;24.57;17.20;;;5.00;99.90;;;;;;6143725;23;20200;-85
2024/01/03 08:29:30;;;;;;;23.90;17.73;;;4.80;99.90;;;;;;6128659;23;20230;-80
2024/01/03 08:31:59;;;;;;;24.97;16.53;;;4.90;99.90;;;;;;6140471;23;20161;-81
2024/01/03 08:34:29;;;;;;;26.67;17.23;;;5.00;99.90;;;;;;6144905;23;20175;-83
2024/01/03 08:36:57;;;;;;;26.20;17.97;;;4.80;99.90;;;;;;6138933;23;20429;-84
2024/01/03 08:39:26;;;;;;;27.17;18.60;;;4.80;99.90;;;;;;6114923;23;20442;-81
2024/01/03 08:41:54;;;;;;;25.37;17.27;;;5.00;99.90;;;;;;6121196;23;20180;-81
2024/01/03 08:44:23;;;;;;;22.50;16.30;;;4.80;99.90;;;;;;6115681;23;20495;-80
2024/01/03 08:46:52;;;;;;;25.67;18.10;;;4.70;99.90;;;;;;6119196;23;20174;-84
2024/01/03 08:49:20;;;;;;;24.70;17.07;;;4.90;99.90;;;;;;6114320;23;20187;-85
2024/01/03 08:51:51;;;;;;;23.87;16.60;;;4.90;99.90;;;;;;6116845;23;20186;-83
2024/01/03 08:54:19;;;;;;;25.03;16.90;;;5.00;99.90;;;;;;6113039;23;20623;-85
2024/01/03 08:56:49;;;;;;;25.80;17.70;;;4.80;99.90;;;;;;6114315;23;20241;-82
2024/01/03 08:59:18;;;;;;;23.73;15.83;;;5.00;99.90;;;;;;6110201;23;20177;-81
2024/01/03 09:01:51;;;;;;;24.00;16.93;;;5.00;99.90;;;;;;6115748;23;20236;-85
2024/01/03 09:04:19;;;;;;;23.20;16.67;;;5.00;99.90;;;;;;6102945;23;20510;-80
2024/01/03 09:06:50;;;;;;;24.67;17.03;;;4.90;99.90;;;;;;6110848;23;20199;-79
2024/01/03 09:09:20;;;;;;;22.30;15.73;;;5.00;99.90;;;;;;6094814;23;20229;-82
2024/01/03 09:11:50;;;;;;;22.53;17.00;;;5.00;99.90;;;;;;6106315;23;20271;-83
2024/01/03 09:14:19;;;;;;;21.40;16.20;;;5.00;99.90;;;;;;6110769;23;20213;-79
2024/01/03 09:16:48;;;;;;;22.87;16.77;;;5.10;99.90;;;;;;6112804;23;20158;-79
2024/01/03 09:19:16;;;;;;;22.47;15.90;;;5.00;99.90;;;;;;6098762;23;20765;-82
2024/01/03 09:21:48;;;;;;;24.40;15.23;;;5.10;99.90;;;;;;6125303;23;20197;-79
2024/01/03 09:24:17;;;;;;;22.70;16.13;;;5.10;99.90;;;;;;6124508;23;20414;-83
2024/01/03 09:26:48;;;;;;;22.13;16.03;;;5.10;99.90;;;;;;6135488;23;20614;-82
2024/01/03 09:29:16;;;;;;;24.07;15.67;;;5.10;99.90;;;;;;6124508;23;20265;-81
2024/01/03 09:31:46;;;;;;;22.30;15.53;;;5.10;99.90;;;;;;6045382;23;20450;-81
2024/01/03 09:34:15;;;;;;;22.87;16.00;;;5.10;99.90;;;;;;6123355;23;20218;-79
2024/01/03 09:36:45;;;;;;;21.93;16.33;;;5.10;99.90;;;;;;6126933;23;20188;-81
2024/01/03 09:39:16;;;;;;;23.97;15.70;;;5.20;99.90;;;;;;6123200;23;20288;-79
2024/01/03 09:41:45;;;;;;;23.67;16.87;;;5.30;99.90;;;;;;6116116;23;20300;-79
2024/01/03 09:44:16;;;;;;;26.33;16.27;;;5.20;99.90;;;;;;6117050;23;20194;-80
2024/01/03 09:46:48;;;;;;;22.77;15.60;;;5.10;99.90;;;;;;6120318;23;20445;-80
2024/01/03 09:49:18;;;;;;;23.30;15.63;;;5.20;99.90;;;;;;6123191;23;20278;-79
2024/01/03 09:51:48;;;;;;;22.30;15.30;;;5.10;99.90;;;;;;6114075;23;20171;-82
2024/01/03 09:54:16;;;;;;;23.40;15.33;;;5.10;99.90;;;;;;6111269;23;20228;-82
2024/01/03 09:56:47;;;;;;;25.30;16.07;;;5.20;99.90;;;;;;6120339;23;20178;-84
2024/01/03 09:59:17;;;;;;;23.90;14.90;;;5.30;99.90;;;;;;6123332;23;20632;-80
2024/01/03 10:01:58;;;;;;;23.57;16.40;;;5.20;99.90;;;;;;6122609;23;20320;-82
2024/01/03 10:04:27;;;;;;;21.60;16.10;;;5.50;99.90;;;;;;6125707;23;20932;-81
2024/01/03 10:06:57;;;;;;;22.57;16.37;;;5.30;99.90;;;;;;6116736;23;20511;-81
2024/01/03 10:09:39;;;;;;;23.97;16.43;;;5.30;99.90;;;;;;6111477;23;20187;-81
2024/01/03 10:12:16;;;;;;;28.07;17.30;;;5.30;99.90;;;;;;6123554;23;20278;-81
2024/01/03 10:14:47;;;;;;;24.33;17.33;;;5.30;99.90;;;;;;6116291;23;20191;-81
2024/01/03 10:17:16;;;;;;;25.23;16.87;;;5.30;99.90;;;;;;6121730;23;20183;-82
2024/01/03 10:19:44;;;;;;;27.37;16.87;;;5.40;99.90;;;;;;6111326;23;20641;-79
2024/01/03 10:22:19;;;;;;;29.43;18.30;;;5.40;99.90;;;;;;6128211;23;20191;-83
2024/01/03 10:24:48;;;;;;;25.83;16.93;;;5.40;99.90;;;;;;6107744;23;20192;-78
2024/01/03 10:27:17;;;;;;;27.87;18.77;;;5.40;99.90;;;;;;6121601;23;20195;-80
2024/01/03 10:29:47;;;;;;;27.53;17.97;;;5.50;99.90;;;;;;6114851;23;20313;-84
2024/01/03 10:32:19;;;;;;;26.03;17.97;;;5.40;99.90;;;;;;6080239;23;20518;-81
2024/01/03 10:34:48;;;;;;;25.00;17.43;;;5.50;99.90;;;;;;6116502;23;20540;-80
2024/01/03 10:37:17;;;;;;;26.73;17.77;;;5.50;99.90;;;;;;6127344;23;20186;-83
2024/01/03 10:39:48;;;;;;;29.03;18.30;;;5.50;99.90;;;;;;6126000;23;20258;-82
2024/01/03 10:42:19;;;;;;;28.00;18.20;;;5.50;99.90;;;;;;6127061;23;20962;-80
2024/01/03 10:44:48;;;;;;;30.13;18.80;;;5.50;99.90;;;;;;6129930;23;20626;-83
2024/01/03 10:47:17;;;;;;;22.93;16.73;;;5.40;99.90;;;;;;6128418;23;20180;-81
2024/01/03 10:49:46;;;;;;;26.90;19.00;;;5.50;99.90;;;;;;6105691;23;20390;-84
2024/01/03 10:52:18;;;;;;;25.23;17.27;;;5.50;99.90;;;;;;6110194;23;20357;-81
2024/01/03 10:54:50;;;;;;;30.27;18.20;;;5.50;99.90;;;;;;6110356;23;20309;-80
2024/01/03 10:57:23;;;;;;;26.07;17.93;;;5.50;99.90;;;;;;6108490;23;20246;-83
2024/01/03 11:00:06;;;;;;;26.47;18.53;;;5.40;99.90;;;;;;6100101;23;20486;-82
2024/01/03 11:02:43;;;;;;;27.63;17.80;;;5.80;99.90;;;;;;6098064;23;20182;-82
2024/01/03 11:05:17;;;;;;;29.00;17.23;;;5.60;99.90;;;;;;6095499;23;20544;-80
2024/01/03 11:07:53;;;;;;;26.47;17.47;;;5.60;99.90;;;;;;6106685;23;20267;-83
2024/01/03 11:10:47;;;;;;;23.60;16.37;;;5.80;99.90;;;;;;6102914;23;20429;-82
2024/01/03 11:13:34;;;;;;;25.67;16.67;;;5.70;99.90;;;;;;6102434;23;20199;-80
2024/01/03 11:16:05;;;;;;;26.57;17.10;;;5.80;99.90;;;;;;6107278;23;20381;-82
2024/01/03 11:18:53;;;;;;;22.57;16.33;;;5.80;99.90;;;;;;6105770;23;20194;-82
2024/01/03 11:21:45;;;;;;;25.00;16.70;;;5.80;99.90;;;;;;6107638;23;20689;-80
2024/01/03 11:24:43;;;;;;;21.97;16.03;;;5.80;99.90;;;;;;6101495;23;20737;-81
2024/01/03 11:27:23;;;;;;;25.10;17.07;;;5.80;99.90;;;;;;6044167;23;20179;-82
2024/01/03 11:29:55;;;;;;;26.00;17.50;;;5.90;99.90;;;;;;6107164;23;20523;-83
2024/01/03 11:32:36;;;;;;;23.77;17.20;;;5.70;99.90;;;;;;6059326;23;20316;-81
2024/01/03 11:35:11;;;;;;;24.80;16.37;;;5.90;99.90;;;;;;6103985;23;20219;-81
2024/01/03 11:37:43;;;;;;;25.90;17.20;;;6.00;99.90;;;;;;6100119;23;20175;-80
2024/01/03 11:40:20;;;;;;;23.07;16.67;;;6.10;99.90;;;;;;6100008;23;20175;-79
2024/01/03 11:42:57;;;;;;;25.73;16.70;;;6.00;99.90;;;;;;6113640;23;20179;-79
2024/01/03 11:45:26;;;;;;;27.37;18.03;;;6.00;99.90;;;;;;6115171;23;20404;-78
2024/01/03 11:48:02;;;;;;;27.37;17.67;;;6.00;99.90;;;;;;6112093;23;20417;-81
2024/01/03 11:50:33;;;;;;;26.23;17.43;;;6.10;99.90;;;;;;6103376;23;20503;-80
2024/01/03 11:53:09;;;;;;;28.50;17.63;;;6.00;99.90;;;;;;6108464;23;20610;-82
2024/01/03 11:55:50;;;;;;;26.40;17.23;;;6.10;99.90;;;;;;6115329;23;20205;-85
2024/01/03 11:58:18;;;;;;;23.17;15.97;;;6.10;99.90;;;;;;6116487;23;20490;-80
2024/01/03 12:00:47;;;;;;;29.17;16.53;;;6.10;99.90;;;;;;6108641;23;20168;-81
2024/01/03 12:03:26;;;;;;;31.20;17.73;;;6.20;99.90;;;;;;6097279;23;20548;-81
2024/01/03 12:05:56;;;;;;;28.17;17.90;;;6.20;99.90;;;;;;6100128;23;20275;-84
2024/01/03 12:08:24;;;;;;;26.80;16.50;;;6.30;99.90;;;;;;6102236;23;20290;-82
2024/01/03 12:10:53;;;;;;;24.73;16.80;;;6.30;99.90;;;;;;6131723;23;20298;-82
2024/01/03 12:13:21;;;;;;;25.77;17.80;;;6.20;99.90;;;;;;6099426;23;20207;-84
2024/01/03 12:15:50;;;;;;;24.17;17.20;;;6.60;99.90;;;;;;6117403;23;20838;-81
2024/01/03 12:18:25;;;;;;;26.10;17.70;;;6.50;99.90;;;;;;6111873;23;20563;-83
2024/01/03 12:20:54;;;;;;;21.73;16.20;;;6.70;99.90;;;;;;6115989;23;20286;-81
2024/01/03 12:23:23;;;;;;;24.83;17.23;;;6.80;99.90;;;;;;6113172;23;20216;-82
2024/01/03 12:25:51;;;;;;;25.33;17.53;;;6.90;99.90;;;;;;6103453;23;20628;-83
2024/01/03 12:28:22;;;;;;;23.03;16.80;;;7.00;99.90;;;;;;6103038;23;20182;-80
2024/01/03 12:30:51;;;;;;;24.00;16.80;;;7.10;99.90;;;;;;6065047;22;20156;-82
2024/01/03 12:33:25;;;;;;;19.77;14.90;;;7.30;99.90;;;;;;6093606;23;20168;-83
2024/01/03 12:36:00;;;;;;;20.00;13.33;;;7.40;99.90;;;;;;6105158;23;20214;-80
2024/01/03 12:38:30;;;;;;;21.27;14.03;;;7.70;99.90;;;;;;6099269;23;20324;-81
2024/01/03 12:41:01;;;;;;;16.07;11.93;;;7.80;99.90;;;;;;6103616;23;20561;-82
2024/01/03 12:43:30;;;;;;;13.57;9.60;;;7.90;99.90;;;;;;6099237;23;20766;-82
2024/01/03 12:46:00;;;;;;;10.73;8.17;;;8.00;99.90;;;;;;6112172;23;20269;-85
2024/01/03 12:48:28;;;;;;;13.23;8.47;;;8.10;99.90;;;;;;6104943;23;20468;-83
2024/01/03 12:50:59;;;;;;;12.37;7.70;;;8.30;99.90;;;;;;6105098;23;20617;-80
2024/01/03 12:53:27;;;;;;;9.97;6.50;;;8.40;99.90;;;;;;6107490;23;20238;-84
2024/01/03 12:55:56;;;;;;;11.00;7.30;;;8.40;99.90;;;;;;6102751;23;20308;-83
2024/01/03 12:58:25;;;;;;;9.87;6.67;;;8.30;99.90;;;;;;6097980;23;20176;-87